sensor_id;sensor_type;location;lat;lon;timestamp;P1;durP1;ratioP1;P2;durP2;ratioP2
51907;SDS011;39320;53.214;6.556;2023-01-09T00:01:45;0.70;;;0.70;;
51907;SDS011;39320;53.214;6.556;2023-01-09T00:04:13;1.02;;;1.02;;
51907;SDS011;39320;53.214;6.556;2023-01-09T00:06:39;1.27;;;1.10;;
51907;SDS011;39320;53.214;6.556;2023-01-09T00:09:07;0.98;;;0.98;;
51907;SDS011;39320;53.214;6.556;2023-01-09T00:11:34;1.05;;;1.00;;
51907;SDS011;39320;53.214;6.556;2023-01-09T00:14:00;1.88;;;1.20;;
51907;SDS011;39320;53.214;6.556;2023-01-09T00:16:26;0.95;;;0.95;;
51907;SDS011;39320;53.214;6.556;2023-01-09T00:18:52;1.00;;;1.00;;
51907;SDS011;39320;53.214;6.556;2023-01-09T00:21:18;0.80;;;0.80;;
51907;SDS011;39320;53.214;6.556;2023-01-09T00:23:44;1.45;;;0.80;;
51907;SDS011;39320;53.214;6.556;2023-01-09T00:26:17;1.02;;;1.02;;
51907;SDS011;39320;53.214;6.556;2023-01-09T00:28:44;0.80;;;0.80;;
51907;SDS011;39320;53.214;6.556;2023-01-09T00:31:11;0.70;;;0.70;;
51907;SDS011;39320;53.214;6.556;2023-01-09T00:33:38;0.80;;;0.80;;
51907;SDS011;39320;53.214;6.556;2023-01-09T00:36:07;1.00;;;0.90;;
51907;SDS011;39320;53.214;6.556;2023-01-09T00:38:33;0.70;;;0.70;;
51907;SDS011;39320;53.214;6.556;2023-01-09T00:41:01;0.65;;;0.65;;
51907;SDS011;39320;53.214;6.556;2023-01-09T00:43:31;0.75;;;0.75;;
51907;SDS011;39320;53.214;6.556;2023-01-09T00:46:00;0.75;;;0.75;;
51907;SDS011;39320;53.214;6.556;2023-01-09T00:48:30;0.57;;;0.57;;
51907;SDS011;39320;53.214;6.556;2023-01-09T00:50:57;0.70;;;0.70;;
51907;SDS011;39320;53.214;6.556;2023-01-09T00:53:26;0.55;;;0.55;;
51907;SDS011;39320;53.214;6.556;2023-01-09T00:55:57;0.65;;;0.65;;
51907;SDS011;39320;53.214;6.556;2023-01-09T00:58:25;0.55;;;0.55;;
51907;SDS011;39320;53.214;6.556;2023-01-09T01:00:51;0.80;;;0.80;;
51907;SDS011;39320;53.214;6.556;2023-01-09T01:03:17;0.60;;;0.60;;
51907;SDS011;39320;53.214;6.556;2023-01-09T01:05:42;0.60;;;0.60;;
51907;SDS011;39320;53.214;6.556;2023-01-09T01:08:26;0.70;;;0.70;;
51907;SDS011;39320;53.214;6.556;2023-01-09T01:10:52;0.80;;;0.80;;
51907;SDS011;39320;53.214;6.556;2023-01-09T01:13:18;0.65;;;0.65;;
51907;SDS011;39320;53.214;6.556;2023-01-09T01:15:44;0.60;;;0.60;;
51907;SDS011;39320;53.214;6.556;2023-01-09T01:18:11;0.70;;;0.70;;
51907;SDS011;39320;53.214;6.556;2023-01-09T01:20:41;0.80;;;0.80;;
51907;SDS011;39320;53.214;6.556;2023-01-09T01:23:08;0.73;;;0.73;;
51907;SDS011;39320;53.214;6.556;2023-01-09T01:25:38;0.50;;;0.50;;
51907;SDS011;39320;53.214;6.556;2023-01-09T01:28:05;0.60;;;0.60;;
51907;SDS011;39320;53.214;6.556;2023-01-09T01:30:32;0.63;;;0.63;;
51907;SDS011;39320;53.214;6.556;2023-01-09T01:32:58;0.60;;;0.60;;
51907;SDS011;39320;53.214;6.556;2023-01-09T01:35:23;0.80;;;0.80;;
51907;SDS011;39320;53.214;6.556;2023-01-09T01:37:50;0.63;;;0.63;;
51907;SDS011;39320;53.214;6.556;2023-01-09T01:40:16;0.82;;;0.82;;
51907;SDS011;39320;53.214;6.556;2023-01-09T01:42:46;0.60;;;0.60;;
51907;SDS011;39320;53.214;6.556;2023-01-09T01:45:15;0.75;;;0.75;;
51907;SDS011;39320;53.214;6.556;2023-01-09T01:47:53;0.70;;;0.70;;
51907;SDS011;39320;53.214;6.556;2023-01-09T01:50:25;0.70;;;0.70;;
51907;SDS011;39320;53.214;6.556;2023-01-09T01:53:11;0.80;;;0.80;;
51907;SDS011;39320;53.214;6.556;2023-01-09T01:55:42;0.65;;;0.65;;
51907;SDS011;39320;53.214;6.556;2023-01-09T01:58:28;0.80;;;0.80;;
51907;SDS011;39320;53.214;6.556;2023-01-09T02:00:54;0.95;;;0.80;;
51907;SDS011;39320;53.214;6.556;2023-01-09T02:03:22;1.00;;;0.85;;
51907;SDS011;39320;53.214;6.556;2023-01-09T02:05:50;0.70;;;0.70;;
51907;SDS011;39320;53.214;6.556;2023-01-09T02:08:16;0.93;;;0.93;;
51907;SDS011;39320;53.214;6.556;2023-01-09T02:10:42;1.10;;;1.00;;
51907;SDS011;39320;53.214;6.556;2023-01-09T02:13:09;1.45;;;0.90;;
51907;SDS011;39320;53.214;6.556;2023-01-09T02:38:39;0.80;;;0.80;;
51907;SDS011;39320;53.214;6.556;2023-01-09T02:41:24;0.95;;;0.95;;
51907;SDS011;39320;53.214;6.556;2023-01-09T02:44:21;1.15;;;0.82;;
51907;SDS011;39320;53.214;6.556;2023-01-09T02:55:17;1.27;;;1.08;;
51907;SDS011;39320;53.214;6.556;2023-01-09T03:01:26;0.95;;;0.95;;
51907;SDS011;39320;53.214;6.556;2023-01-09T03:07:10;1.30;;;0.98;;
51907;SDS011;39320;53.214;6.556;2023-01-09T03:09:38;1.00;;;0.90;;
51907;SDS011;39320;53.214;6.556;2023-01-09T03:12:08;1.80;;;1.25;;
51907;SDS011;39320;53.214;6.556;2023-01-09T03:14:43;1.15;;;1.15;;
51907;SDS011;39320;53.214;6.556;2023-01-09T03:17:11;1.10;;;1.10;;
51907;SDS011;39320;53.214;6.556;2023-01-09T03:19:43;1.20;;;1.20;;
51907;SDS011;39320;53.214;6.556;2023-01-09T03:22:10;1.00;;;0.90;;
51907;SDS011;39320;53.214;6.556;2023-01-09T03:24:36;1.00;;;0.90;;
51907;SDS011;39320;53.214;6.556;2023-01-09T03:27:04;1.92;;;1.08;;
51907;SDS011;39320;53.214;6.556;2023-01-09T03:29:32;0.90;;;0.90;;
51907;SDS011;39320;53.214;6.556;2023-01-09T03:31:57;1.40;;;1.15;;
51907;SDS011;39320;53.214;6.556;2023-01-09T03:34:23;0.90;;;0.90;;
51907;SDS011;39320;53.214;6.556;2023-01-09T03:36:49;1.10;;;0.90;;
51907;SDS011;39320;53.214;6.556;2023-01-09T03:39:14;1.02;;;1.00;;
51907;SDS011;39320;53.214;6.556;2023-01-09T03:41:40;1.48;;;0.90;;
51907;SDS011;39320;53.214;6.556;2023-01-09T03:44:06;1.02;;;1.00;;
51907;SDS011;39320;53.214;6.556;2023-01-09T03:46:31;0.93;;;0.85;;
51907;SDS011;39320;53.214;6.556;2023-01-09T03:48:57;1.08;;;1.08;;
51907;SDS011;39320;53.214;6.556;2023-01-09T03:51:23;0.88;;;0.88;;
51907;SDS011;39320;53.214;6.556;2023-01-09T03:53:48;1.05;;;1.05;;
51907;SDS011;39320;53.214;6.556;2023-01-09T03:56:14;1.45;;;1.08;;
51907;SDS011;39320;53.214;6.556;2023-01-09T03:58:40;1.42;;;1.20;;
51907;SDS011;39320;53.214;6.556;2023-01-09T04:01:05;1.00;;;1.00;;
51907;SDS011;39320;53.214;6.556;2023-01-09T04:03:36;1.02;;;1.02;;
51907;SDS011;39320;53.214;6.556;2023-01-09T04:06:03;1.58;;;1.48;;
51907;SDS011;39320;53.214;6.556;2023-01-09T04:08:30;1.85;;;1.13;;
51907;SDS011;39320;53.214;6.556;2023-01-09T04:10:55;1.30;;;1.20;;
51907;SDS011;39320;53.214;6.556;2023-01-09T04:13:21;1.10;;;0.95;;
51907;SDS011;39320;53.214;6.556;2023-01-09T04:15:47;1.60;;;1.45;;
51907;SDS011;39320;53.214;6.556;2023-01-09T04:18:13;1.13;;;1.08;;
51907;SDS011;39320;53.214;6.556;2023-01-09T04:20:39;1.17;;;1.10;;
51907;SDS011;39320;53.214;6.556;2023-01-09T04:23:05;1.27;;;1.17;;
51907;SDS011;39320;53.214;6.556;2023-01-09T04:25:31;1.40;;;1.30;;
51907;SDS011;39320;53.214;6.556;2023-01-09T04:27:57;1.55;;;1.20;;
51907;SDS011;39320;53.214;6.556;2023-01-09T04:30:23;1.42;;;1.33;;
51907;SDS011;39320;53.214;6.556;2023-01-09T04:32:49;1.33;;;1.23;;
51907;SDS011;39320;53.214;6.556;2023-01-09T04:35:16;1.55;;;1.48;;
51907;SDS011;39320;53.214;6.556;2023-01-09T04:37:44;1.10;;;1.10;;
51907;SDS011;39320;53.214;6.556;2023-01-09T04:40:10;1.27;;;1.23;;
51907;SDS011;39320;53.214;6.556;2023-01-09T04:42:37;1.33;;;1.30;;
51907;SDS011;39320;53.214;6.556;2023-01-09T04:45:06;1.65;;;1.55;;
51907;SDS011;39320;53.214;6.556;2023-01-09T04:47:33;1.42;;;1.40;;
51907;SDS011;39320;53.214;6.556;2023-01-09T04:49:59;1.52;;;1.42;;
51907;SDS011;39320;53.214;6.556;2023-01-09T04:52:25;1.70;;;1.60;;
51907;SDS011;39320;53.214;6.556;2023-01-09T04:54:51;1.42;;;1.33;;
51907;SDS011;39320;53.214;6.556;2023-01-09T04:57:17;1.92;;;1.35;;
51907;SDS011;39320;53.214;6.556;2023-01-09T04:59:43;1.60;;;1.50;;
51907;SDS011;39320;53.214;6.556;2023-01-09T05:02:08;1.60;;;1.50;;
51907;SDS011;39320;53.214;6.556;2023-01-09T05:04:34;1.33;;;1.20;;
51907;SDS011;39320;53.214;6.556;2023-01-09T05:07:00;2.15;;;1.33;;
51907;SDS011;39320;53.214;6.556;2023-01-09T05:09:26;1.20;;;1.20;;
51907;SDS011;39320;53.214;6.556;2023-01-09T05:11:52;1.77;;;1.67;;
51907;SDS011;39320;53.214;6.556;2023-01-09T05:14:18;1.70;;;1.60;;
51907;SDS011;39320;53.214;6.556;2023-01-09T05:16:43;2.17;;;1.95;;
51907;SDS011;39320;53.214;6.556;2023-01-09T05:19:09;1.70;;;1.60;;
51907;SDS011;39320;53.214;6.556;2023-01-09T05:21:35;1.65;;;1.55;;
51907;SDS011;39320;53.214;6.556;2023-01-09T05:24:01;2.33;;;1.60;;
51907;SDS011;39320;53.214;6.556;2023-01-09T05:26:26;1.92;;;1.83;;
51907;SDS011;39320;53.214;6.556;2023-01-09T05:28:52;1.63;;;1.52;;
51907;SDS011;39320;53.214;6.556;2023-01-09T05:31:20;1.75;;;1.65;;
51907;SDS011;39320;53.214;6.556;2023-01-09T05:33:47;1.80;;;1.70;;
51907;SDS011;39320;53.214;6.556;2023-01-09T05:36:13;2.20;;;2.00;;
51907;SDS011;39320;53.214;6.556;2023-01-09T05:38:39;1.88;;;1.77;;
51907;SDS011;39320;53.214;6.556;2023-01-09T05:41:04;2.20;;;2.08;;
51907;SDS011;39320;53.214;6.556;2023-01-09T05:43:31;1.98;;;1.88;;
51907;SDS011;39320;53.214;6.556;2023-01-09T05:45:57;2.47;;;2.33;;
51907;SDS011;39320;53.214;6.556;2023-01-09T05:48:23;2.90;;;2.20;;
51907;SDS011;39320;53.214;6.556;2023-01-09T05:50:48;2.53;;;2.35;;
51907;SDS011;39320;53.214;6.556;2023-01-09T05:53:14;2.50;;;2.30;;
51907;SDS011;39320;53.214;6.556;2023-01-09T05:55:40;2.70;;;2.60;;
51907;SDS011;39320;53.214;6.556;2023-01-09T05:58:06;2.90;;;2.70;;
51907;SDS011;39320;53.214;6.556;2023-01-09T06:00:32;2.58;;;2.47;;
51907;SDS011;39320;53.214;6.556;2023-01-09T06:02:57;3.30;;;3.10;;
51907;SDS011;39320;53.214;6.556;2023-01-09T06:05:23;2.60;;;2.50;;
51907;SDS011;39320;53.214;6.556;2023-01-09T06:07:49;2.63;;;2.42;;
51907;SDS011;39320;53.214;6.556;2023-01-09T06:10:15;2.70;;;2.50;;
51907;SDS011;39320;53.214;6.556;2023-01-09T06:12:41;2.83;;;2.58;;
51907;SDS011;39320;53.214;6.556;2023-01-09T06:15:12;2.50;;;2.25;;
51907;SDS011;39320;53.214;6.556;2023-01-09T06:17:39;3.33;;;3.10;;
51907;SDS011;39320;53.214;6.556;2023-01-09T06:20:05;2.97;;;2.78;;
51907;SDS011;39320;53.214;6.556;2023-01-09T06:22:32;3.20;;;2.75;;
51907;SDS011;39320;53.214;6.556;2023-01-09T06:24:57;3.10;;;2.90;;
51907;SDS011;39320;53.214;6.556;2023-01-09T06:27:23;3.22;;;3.03;;
51907;SDS011;39320;53.214;6.556;2023-01-09T06:29:49;3.30;;;3.00;;
51907;SDS011;39320;53.214;6.556;2023-01-09T06:32:15;3.20;;;3.00;;
51907;SDS011;39320;53.214;6.556;2023-01-09T06:34:41;2.72;;;2.50;;
51907;SDS011;39320;53.214;6.556;2023-01-09T06:37:07;2.75;;;2.55;;
51907;SDS011;39320;53.214;6.556;2023-01-09T06:39:32;3.40;;;3.20;;
51907;SDS011;39320;53.214;6.556;2023-01-09T06:41:58;3.78;;;3.03;;
51907;SDS011;39320;53.214;6.556;2023-01-09T06:44:24;3.60;;;3.30;;
51907;SDS011;39320;53.214;6.556;2023-01-09T06:46:49;3.42;;;3.22;;
51907;SDS011;39320;53.214;6.556;2023-01-09T06:49:15;3.15;;;2.95;;
51907;SDS011;39320;53.214;6.556;2023-01-09T06:51:42;3.20;;;2.95;;
51907;SDS011;39320;53.214;6.556;2023-01-09T06:54:08;3.58;;;2.92;;
51907;SDS011;39320;53.214;6.556;2023-01-09T06:56:33;3.33;;;3.13;;
51907;SDS011;39320;53.214;6.556;2023-01-09T06:58:59;3.10;;;2.90;;
51907;SDS011;39320;53.214;6.556;2023-01-09T07:01:25;3.40;;;3.17;;
51907;SDS011;39320;53.214;6.556;2023-01-09T07:03:51;3.75;;;3.45;;
51907;SDS011;39320;53.214;6.556;2023-01-09T07:06:17;2.97;;;2.78;;
51907;SDS011;39320;53.214;6.556;2023-01-09T07:08:44;3.40;;;3.20;;
51907;SDS011;39320;53.214;6.556;2023-01-09T07:11:09;3.17;;;2.97;;
51907;SDS011;39320;53.214;6.556;2023-01-09T07:13:35;3.70;;;3.40;;
51907;SDS011;39320;53.214;6.556;2023-01-09T07:16:02;2.70;;;2.60;;
51907;SDS011;39320;53.214;6.556;2023-01-09T07:18:29;3.92;;;3.10;;
51907;SDS011;39320;53.214;6.556;2023-01-09T07:20:55;3.28;;;3.08;;
51907;SDS011;39320;53.214;6.556;2023-01-09T07:23:21;3.17;;;2.97;;
51907;SDS011;39320;53.214;6.556;2023-01-09T07:25:47;3.00;;;2.80;;
51907;SDS011;39320;53.214;6.556;2023-01-09T07:28:15;3.00;;;2.80;;
51907;SDS011;39320;53.214;6.556;2023-01-09T07:30:41;3.28;;;3.08;;
51907;SDS011;39320;53.214;6.556;2023-01-09T07:33:06;3.30;;;3.10;;
51907;SDS011;39320;53.214;6.556;2023-01-09T07:35:32;2.88;;;2.67;;
51907;SDS011;39320;53.214;6.556;2023-01-09T07:37:58;2.92;;;2.72;;
51907;SDS011;39320;53.214;6.556;2023-01-09T07:40:24;3.20;;;2.90;;
51907;SDS011;39320;53.214;6.556;2023-01-09T07:42:51;3.10;;;2.90;;
51907;SDS011;39320;53.214;6.556;2023-01-09T07:45:17;3.38;;;3.08;;
51907;SDS011;39320;53.214;6.556;2023-01-09T07:47:43;2.92;;;2.72;;
51907;SDS011;39320;53.214;6.556;2023-01-09T07:50:09;2.65;;;2.50;;
51907;SDS011;39320;53.214;6.556;2023-01-09T07:52:35;2.90;;;2.70;;
51907;SDS011;39320;53.214;6.556;2023-01-09T07:55:01;2.35;;;2.25;;
51907;SDS011;39320;53.214;6.556;2023-01-09T07:57:27;2.42;;;2.22;;
51907;SDS011;39320;53.214;6.556;2023-01-09T07:59:54;2.25;;;2.05;;
51907;SDS011;39320;53.214;6.556;2023-01-09T08:02:20;2.65;;;2.20;;
51907;SDS011;39320;53.214;6.556;2023-01-09T08:04:46;2.13;;;1.85;;
51907;SDS011;39320;53.214;6.556;2023-01-09T08:07:12;2.08;;;1.95;;
51907;SDS011;39320;53.214;6.556;2023-01-09T08:09:38;2.28;;;2.08;;
51907;SDS011;39320;53.214;6.556;2023-01-09T08:12:03;2.63;;;2.00;;
51907;SDS011;39320;53.214;6.556;2023-01-09T08:14:30;2.40;;;2.22;;
51907;SDS011;39320;53.214;6.556;2023-01-09T08:16:55;1.92;;;1.83;;
51907;SDS011;39320;53.214;6.556;2023-01-09T08:19:21;2.08;;;1.90;;
51907;SDS011;39320;53.214;6.556;2023-01-09T08:21:48;2.20;;;2.00;;
51907;SDS011;39320;53.214;6.556;2023-01-09T08:24:13;2.13;;;1.90;;
51907;SDS011;39320;53.214;6.556;2023-01-09T08:26:40;2.30;;;2.10;;
51907;SDS011;39320;53.214;6.556;2023-01-09T08:29:06;2.03;;;1.92;;
51907;SDS011;39320;53.214;6.556;2023-01-09T08:31:32;2.10;;;2.00;;
51907;SDS011;39320;53.214;6.556;2023-01-09T08:33:57;1.85;;;1.75;;
51907;SDS011;39320;53.214;6.556;2023-01-09T08:36:23;2.05;;;1.85;;
51907;SDS011;39320;53.214;6.556;2023-01-09T08:38:49;1.92;;;1.83;;
51907;SDS011;39320;53.214;6.556;2023-01-09T08:41:14;2.92;;;1.88;;
51907;SDS011;39320;53.214;6.556;2023-01-09T08:43:59;1.95;;;1.75;;
51907;SDS011;39320;53.214;6.556;2023-01-09T08:46:43;2.40;;;2.20;;
51907;SDS011;39320;53.214;6.556;2023-01-09T08:49:28;2.17;;;2.05;;
51907;SDS011;39320;53.214;6.556;2023-01-09T08:51:53;1.92;;;1.83;;
51907;SDS011;39320;53.214;6.556;2023-01-09T08:54:19;2.08;;;1.98;;
51907;SDS011;39320;53.214;6.556;2023-01-09T08:56:45;2.20;;;2.00;;
51907;SDS011;39320;53.214;6.556;2023-01-09T08:59:11;2.20;;;2.10;;
51907;SDS011;39320;53.214;6.556;2023-01-09T09:01:36;2.15;;;2.05;;
51907;SDS011;39320;53.214;6.556;2023-01-09T09:04:02;3.15;;;2.95;;
51907;SDS011;39320;53.214;6.556;2023-01-09T09:06:29;4.95;;;4.65;;
51907;SDS011;39320;53.214;6.556;2023-01-09T09:08:56;4.55;;;4.25;;
51907;SDS011;39320;53.214;6.556;2023-01-09T09:11:21;5.35;;;4.95;;
51907;SDS011;39320;53.214;6.556;2023-01-09T09:13:47;4.03;;;3.72;;
51907;SDS011;39320;53.214;6.556;2023-01-09T09:16:13;5.05;;;4.75;;
51907;SDS011;39320;53.214;6.556;2023-01-09T09:18:38;2.60;;;2.40;;
51907;SDS011;39320;53.214;6.556;2023-01-09T09:21:04;2.00;;;1.90;;
51907;SDS011;39320;53.214;6.556;2023-01-09T09:23:30;1.88;;;1.70;;
51907;SDS011;39320;53.214;6.556;2023-01-09T09:25:55;1.80;;;1.70;;
51907;SDS011;39320;53.214;6.556;2023-01-09T09:28:21;1.98;;;1.80;;
51907;SDS011;39320;53.214;6.556;2023-01-09T09:30:47;1.95;;;1.42;;
51907;SDS011;39320;53.214;6.556;2023-01-09T09:33:13;1.80;;;1.70;;
51907;SDS011;39320;53.214;6.556;2023-01-09T09:35:38;1.98;;;1.65;;
51907;SDS011;39320;53.214;6.556;2023-01-09T09:38:04;1.60;;;1.50;;
51907;SDS011;39320;53.214;6.556;2023-01-09T09:44:22;1.80;;;1.70;;
51907;SDS011;39320;53.214;6.556;2023-01-09T09:49:21;1.58;;;1.48;;
51907;SDS011;39320;53.214;6.556;2023-01-09T09:52:03;1.60;;;1.50;;
51907;SDS011;39320;53.214;6.556;2023-01-09T09:54:44;1.52;;;1.42;;
51907;SDS011;39320;53.214;6.556;2023-01-09T09:57:14;2.03;;;1.77;;
51907;SDS011;39320;53.214;6.556;2023-01-09T09:59:44;1.40;;;1.30;;
51907;SDS011;39320;53.214;6.556;2023-01-09T10:02:27;1.33;;;1.23;;
51907;SDS011;39320;53.214;6.556;2023-01-09T10:05:08;1.50;;;1.38;;
51907;SDS011;39320;53.214;6.556;2023-01-09T10:07:47;1.27;;;1.27;;
51907;SDS011;39320;53.214;6.556;2023-01-09T10:10:21;1.52;;;1.42;;
51907;SDS011;39320;53.214;6.556;2023-01-09T10:13:06;1.70;;;1.40;;
51907;SDS011;39320;53.214;6.556;2023-01-09T10:15:57;1.98;;;1.48;;
51907;SDS011;39320;53.214;6.556;2023-01-09T10:26:51;1.10;;;1.10;;
51907;SDS011;39320;53.214;6.556;2023-01-09T10:37:30;2.00;;;1.70;;
51907;SDS011;39320;53.214;6.556;2023-01-09T10:48:23;1.20;;;1.10;;
51907;SDS011;39320;53.214;6.556;2023-01-09T10:50:59;1.50;;;1.40;;
51907;SDS011;39320;53.214;6.556;2023-01-09T10:53:27;1.23;;;1.13;;
51907;SDS011;39320;53.214;6.556;2023-01-09T10:56:12;1.40;;;1.30;;
51907;SDS011;39320;53.214;6.556;2023-01-09T10:58:45;1.30;;;1.20;;
51907;SDS011;39320;53.214;6.556;2023-01-09T11:01:11;1.70;;;1.60;;
51907;SDS011;39320;53.214;6.556;2023-01-09T11:03:37;1.58;;;1.40;;
51907;SDS011;39320;53.214;6.556;2023-01-09T11:06:03;1.20;;;1.20;;
51907;SDS011;39320;53.214;6.556;2023-01-09T11:08:41;1.40;;;1.30;;
51907;SDS011;39320;53.214;6.556;2023-01-09T11:11:09;1.65;;;1.30;;
51907;SDS011;39320;53.214;6.556;2023-01-09T11:13:37;1.17;;;1.08;;
51907;SDS011;39320;53.214;6.556;2023-01-09T11:19:02;1.40;;;1.30;;
51907;SDS011;39320;53.214;6.556;2023-01-09T11:21:35;1.38;;;1.27;;
51907;SDS011;39320;53.214;6.556;2023-01-09T11:24:36;1.58;;;1.48;;
51907;SDS011;39320;53.214;6.556;2023-01-09T11:27:17;1.27;;;1.17;;
51907;SDS011;39320;53.214;6.556;2023-01-09T11:30:04;1.38;;;1.27;;
51907;SDS011;39320;53.214;6.556;2023-01-09T11:34:59;1.40;;;1.30;;
51907;SDS011;39320;53.214;6.556;2023-01-09T11:37:28;1.70;;;1.33;;
51907;SDS011;39320;53.214;6.556;2023-01-09T11:39:58;1.75;;;1.65;;
51907;SDS011;39320;53.214;6.556;2023-01-09T11:42:26;1.60;;;1.50;;
51907;SDS011;39320;53.214;6.556;2023-01-09T11:45:15;1.35;;;1.23;;
51907;SDS011;39320;53.214;6.556;2023-01-09T11:47:43;1.58;;;1.30;;
51907;SDS011;39320;53.214;6.556;2023-01-09T11:52:42;1.50;;;1.40;;
51907;SDS011;39320;53.214;6.556;2023-01-09T11:55:09;1.70;;;1.60;;
51907;SDS011;39320;53.214;6.556;2023-01-09T11:57:39;1.65;;;1.55;;
51907;SDS011;39320;53.214;6.556;2023-01-09T12:00:27;1.80;;;1.70;;
51907;SDS011;39320;53.214;6.556;2023-01-09T12:05:52;1.52;;;1.42;;
51907;SDS011;39320;53.214;6.556;2023-01-09T12:08:44;1.80;;;1.70;;
51907;SDS011;39320;53.214;6.556;2023-01-09T12:14:24;1.50;;;1.40;;
51907;SDS011;39320;53.214;6.556;2023-01-09T12:22:36;1.73;;;1.63;;
51907;SDS011;39320;53.214;6.556;2023-01-09T12:28:47;1.70;;;1.60;;
51907;SDS011;39320;53.214;6.556;2023-01-09T12:49:00;2.05;;;1.95;;
51907;SDS011;39320;53.214;6.556;2023-01-09T12:51:24;1.70;;;1.60;;
51907;SDS011;39320;53.214;6.556;2023-01-09T12:56:27;1.90;;;1.55;;
51907;SDS011;39320;53.214;6.556;2023-01-09T12:59:09;1.70;;;1.60;;
51907;SDS011;39320;53.214;6.556;2023-01-09T13:01:47;2.03;;;1.92;;
51907;SDS011;39320;53.214;6.556;2023-01-09T13:04:16;2.00;;;1.90;;
51907;SDS011;39320;53.214;6.556;2023-01-09T13:06:49;2.42;;;2.25;;
51907;SDS011;39320;53.214;6.556;2023-01-09T13:09:23;2.15;;;2.05;;
51907;SDS011;39320;53.214;6.556;2023-01-09T13:12:03;1.90;;;1.75;;
51907;SDS011;39320;53.214;6.556;2023-01-09T13:14:55;1.98;;;1.88;;
51907;SDS011;39320;53.214;6.556;2023-01-09T13:17:37;2.00;;;1.80;;
51907;SDS011;39320;53.214;6.556;2023-01-09T13:20:21;2.55;;;2.35;;
51907;SDS011;39320;53.214;6.556;2023-01-09T13:22:50;2.10;;;2.00;;
51907;SDS011;39320;53.214;6.556;2023-01-09T13:25:34;2.17;;;2.05;;
51907;SDS011;39320;53.214;6.556;2023-01-09T13:28:17;2.20;;;2.10;;
51907;SDS011;39320;53.214;6.556;2023-01-09T13:30:56;2.80;;;2.60;;
51907;SDS011;39320;53.214;6.556;2023-01-09T13:33:31;2.20;;;2.10;;
51907;SDS011;39320;53.214;6.556;2023-01-09T13:36:01;2.20;;;2.00;;
51907;SDS011;39320;53.214;6.556;2023-01-09T13:38:28;2.60;;;2.40;;
51907;SDS011;39320;53.214;6.556;2023-01-09T13:43:56;2.05;;;1.95;;
51907;SDS011;39320;53.214;6.556;2023-01-09T13:46:40;2.10;;;2.00;;
51907;SDS011;39320;53.214;6.556;2023-01-09T13:49:27;2.50;;;2.30;;
51907;SDS011;39320;53.214;6.556;2023-01-09T13:57:37;2.90;;;2.70;;
51907;SDS011;39320;53.214;6.556;2023-01-09T14:05:09;2.40;;;2.30;;
51907;SDS011;39320;53.214;6.556;2023-01-09T14:07:40;2.63;;;2.42;;
51907;SDS011;39320;53.214;6.556;2023-01-09T14:12:50;2.90;;;2.70;;
51907;SDS011;39320;53.214;6.556;2023-01-09T14:15:37;2.70;;;2.50;;
51907;SDS011;39320;53.214;6.556;2023-01-09T14:18:15;2.50;;;2.30;;
51907;SDS011;39320;53.214;6.556;2023-01-09T14:23:26;3.00;;;2.70;;
51907;SDS011;39320;53.214;6.556;2023-01-09T14:25:56;2.50;;;2.30;;
51907;SDS011;39320;53.214;6.556;2023-01-09T14:28:26;2.58;;;2.35;;
51907;SDS011;39320;53.214;6.556;2023-01-09T14:41:20;2.30;;;2.20;;
51907;SDS011;39320;53.214;6.556;2023-01-09T14:47:13;2.50;;;2.30;;
51907;SDS011;39320;53.214;6.556;2023-01-09T14:52:56;2.67;;;2.28;;
51907;SDS011;39320;53.214;6.556;2023-01-09T14:55:55;2.42;;;2.05;;
51907;SDS011;39320;53.214;6.556;2023-01-09T14:58:23;2.33;;;2.10;;
51907;SDS011;39320;53.214;6.556;2023-01-09T15:01:00;2.17;;;2.08;;
51907;SDS011;39320;53.214;6.556;2023-01-09T15:06:06;1.95;;;1.85;;
51907;SDS011;39320;53.214;6.556;2023-01-09T15:08:39;2.20;;;2.00;;
51907;SDS011;39320;53.214;6.556;2023-01-09T15:11:10;2.72;;;2.17;;
51907;SDS011;39320;53.214;6.556;2023-01-09T15:13:41;2.78;;;2.28;;
51907;SDS011;39320;53.214;6.556;2023-01-09T15:16:15;2.35;;;2.15;;
51907;SDS011;39320;53.214;6.556;2023-01-09T15:18:43;2.00;;;1.90;;
51907;SDS011;39320;53.214;6.556;2023-01-09T15:21:22;2.95;;;2.20;;
51907;SDS011;39320;53.214;6.556;2023-01-09T15:24:09;3.33;;;2.10;;
51907;SDS011;39320;53.214;6.556;2023-01-09T15:26:36;2.00;;;1.70;;
51907;SDS011;39320;53.214;6.556;2023-01-09T15:29:11;2.08;;;1.88;;
51907;SDS011;39320;53.214;6.556;2023-01-09T15:31:42;2.72;;;2.47;;
51907;SDS011;39320;53.214;6.556;2023-01-09T15:34:11;2.53;;;2.20;;
51907;SDS011;39320;53.214;6.556;2023-01-09T15:36:42;2.10;;;1.90;;
51907;SDS011;39320;53.214;6.556;2023-01-09T15:39:08;2.00;;;1.50;;
51907;SDS011;39320;53.214;6.556;2023-01-09T15:41:38;2.47;;;1.70;;
51907;SDS011;39320;53.214;6.556;2023-01-09T15:44:23;3.15;;;2.00;;
51907;SDS011;39320;53.214;6.556;2023-01-09T15:46:54;2.80;;;2.05;;
51907;SDS011;39320;53.214;6.556;2023-01-09T15:49:22;1.95;;;1.70;;
51907;SDS011;39320;53.214;6.556;2023-01-09T15:51:48;1.27;;;1.17;;
51907;SDS011;39320;53.214;6.556;2023-01-09T15:54:16;2.20;;;1.30;;
51907;SDS011;39320;53.214;6.556;2023-01-09T15:56:44;2.60;;;1.65;;
51907;SDS011;39320;53.214;6.556;2023-01-09T15:59:21;3.25;;;2.00;;
51907;SDS011;39320;53.214;6.556;2023-01-09T16:01:53;2.28;;;1.85;;
51907;SDS011;39320;53.214;6.556;2023-01-09T16:04:41;1.85;;;1.58;;
51907;SDS011;39320;53.214;6.556;2023-01-09T16:07:12;2.25;;;1.67;;
51907;SDS011;39320;53.214;6.556;2023-01-09T16:09:39;2.33;;;2.13;;
51907;SDS011;39320;53.214;6.556;2023-01-09T16:12:16;3.22;;;2.45;;
51907;SDS011;39320;53.214;6.556;2023-01-09T16:14:54;2.15;;;1.95;;
51907;SDS011;39320;53.214;6.556;2023-01-09T16:19:54;3.13;;;2.15;;
51907;SDS011;39320;53.214;6.556;2023-01-09T16:24:47;1.88;;;1.70;;
51907;SDS011;39320;53.214;6.556;2023-01-09T16:27:30;4.03;;;2.10;;
51907;SDS011;39320;53.214;6.556;2023-01-09T16:29:58;1.88;;;1.67;;
51907;SDS011;39320;53.214;6.556;2023-01-09T16:32:31;2.85;;;1.92;;
51907;SDS011;39320;53.214;6.556;2023-01-09T16:35:00;2.42;;;1.90;;
51907;SDS011;39320;53.214;6.556;2023-01-09T16:37:29;1.90;;;1.70;;
51907;SDS011;39320;53.214;6.556;2023-01-09T16:42:45;3.22;;;2.05;;
51907;SDS011;39320;53.214;6.556;2023-01-09T16:45:39;2.70;;;1.90;;
51907;SDS011;39320;53.214;6.556;2023-01-09T16:48:10;1.70;;;1.60;;
51907;SDS011;39320;53.214;6.556;2023-01-09T16:50:40;1.88;;;1.70;;
51907;SDS011;39320;53.214;6.556;2023-01-09T16:53:12;1.98;;;1.67;;
51907;SDS011;39320;53.214;6.556;2023-01-09T16:55:39;2.38;;;1.70;;
51907;SDS011;39320;53.214;6.556;2023-01-09T16:58:05;2.25;;;2.05;;
51907;SDS011;39320;53.214;6.556;2023-01-09T17:00:33;2.65;;;1.83;;
51907;SDS011;39320;53.214;6.556;2023-01-09T17:02:58;2.85;;;1.63;;
51907;SDS011;39320;53.214;6.556;2023-01-09T17:05:25;2.22;;;1.70;;
51907;SDS011;39320;53.214;6.556;2023-01-09T17:07:50;2.20;;;2.00;;
51907;SDS011;39320;53.214;6.556;2023-01-09T17:10:18;2.08;;;1.80;;
51907;SDS011;39320;53.214;6.556;2023-01-09T17:12:46;2.25;;;1.58;;
51907;SDS011;39320;53.214;6.556;2023-01-09T17:15:13;1.98;;;1.77;;
51907;SDS011;39320;53.214;6.556;2023-01-09T17:17:40;2.08;;;1.73;;
51907;SDS011;39320;53.214;6.556;2023-01-09T17:20:24;1.92;;;1.60;;
51907;SDS011;39320;53.214;6.556;2023-01-09T17:28:02;1.80;;;1.70;;
51907;SDS011;39320;53.214;6.556;2023-01-09T17:30:46;1.93;;;1.80;;
51907;SDS011;39320;53.214;6.556;2023-01-09T17:33:15;2.72;;;2.42;;
51907;SDS011;39320;53.214;6.556;2023-01-09T17:35:42;1.77;;;1.67;;
51907;SDS011;39320;53.214;6.556;2023-01-09T17:38:12;2.92;;;2.10;;
51907;SDS011;39320;53.214;6.556;2023-01-09T17:40:39;2.03;;;1.83;;
51907;SDS011;39320;53.214;6.556;2023-01-09T17:43:05;2.08;;;1.90;;
51907;SDS011;39320;53.214;6.556;2023-01-09T17:45:31;2.88;;;2.17;;
51907;SDS011;39320;53.214;6.556;2023-01-09T17:47:56;2.53;;;1.75;;